Time;durP1;ratioP1;P1;durP2;ratioP2;P2;SDS_P1;SDS_P2;PMS_P1;PMS_P2;Temp;Humidity;BMP_temperature;BMP_pressure;BME280_temperature;BME280_humidity;BME280_pressure;Samples;Min_cycle;Max_cycle;Signal;HPM_P1;HPM_P2
2023/06/06 00:02:50;;;;;;;9.25;8.45;;;;;;;18.98;80.12;95558.56;5044737;28;20202;-87
2023/06/06 00:11:46;;;;;;;10.77;9.82;;;;;;;18.86;80.77;95552.56;5033044;28;20190;-84
2023/06/06 00:14:42;;;;;;;9.57;8.88;;;;;;;19.00;79.76;95547.91;5032458;28;20202;-84
2023/06/06 00:17:19;;;;;;;9.93;9.10;;;;;;;19.00;79.76;95543.47;5028776;28;20280;-84
2023/06/06 00:19:56;;;;;;;10.60;9.70;;;;;;;18.96;79.46;95547.56;5039738;28;20705;-84
2023/06/06 00:22:25;;;;;;;10.65;9.65;;;;;;;18.93;79.41;95535.75;5051712;28;20288;-85
2023/06/06 00:24:58;;;;;;;9.55;8.85;;;;;;;18.96;79.19;95537.13;5046823;28;20194;-85
2023/06/06 00:27:26;;;;;;;11.18;10.27;;;;;;;18.93;78.88;95543.59;5032467;28;20214;-84
2023/06/06 00:29:52;;;;;;;10.93;10.00;;;;;;;18.90;79.21;95536.22;5041400;28;20261;-84
2023/06/06 00:32:19;;;;;;;11.70;10.70;;;;;;;18.82;79.32;95546.22;5038456;28;20218;-86
2023/06/06 00:34:45;;;;;;;12.02;11.02;;;;;;;18.80;79.10;95543.84;5037494;28;20219;-84
2023/06/06 00:37:12;;;;;;;11.30;10.40;;;;;;;18.75;79.32;95538.50;5026684;28;20979;-84
2023/06/06 00:39:38;;;;;;;11.00;10.10;;;;;;;18.78;79.18;95535.44;5050250;28;20209;-87
2023/06/06 00:42:05;;;;;;;11.18;10.18;;;;;;;18.80;79.27;95541.25;5050744;28;20226;-88
2023/06/06 00:44:33;;;;;;;10.80;9.90;;;;;;;18.75;79.75;95543.72;5051025;28;20208;-87
2023/06/06 00:46:59;;;;;;;10.15;9.25;;;;;;;18.78;79.30;95538.06;5051448;28;20236;-87
2023/06/06 00:49:26;;;;;;;11.73;10.80;;;;;;;18.65;79.97;95540.91;5050483;28;20213;-87
2023/06/06 00:51:53;;;;;;;10.77;9.80;;;;;;;18.63;80.43;95533.31;5038635;28;20576;-87
2023/06/06 00:54:20;;;;;;;10.20;9.40;;;;;;;18.59;80.40;95542.59;5032189;28;20202;-87
2023/06/06 00:56:49;;;;;;;10.10;9.18;;;;;;;18.66;80.64;95536.50;5031212;28;20202;-85
2023/06/06 00:59:16;;;;;;;9.52;8.65;;;;;;;18.79;79.89;95534.44;5031127;28;20217;-86
2023/06/06 01:01:47;;;;;;;9.30;8.60;;;;;;;18.93;78.98;95534.97;5031666;28;20237;-86
2023/06/06 01:04:15;;;;;;;9.95;9.05;;;;;;;18.96;79.15;95532.69;5041796;28;20603;-87
2023/06/06 01:06:42;;;;;;;10.25;9.35;;;;;;;18.86;80.09;95534.28;5050935;28;20249;-87
2023/06/06 01:09:11;;;;;;;9.80;9.00;;;;;;;18.97;79.29;95536.91;5036365;28;20210;-87
2023/06/06 01:11:46;;;;;;;9.68;8.90;;;;;;;19.03;78.76;95526.56;5030805;28;20263;-87
2023/06/06 01:14:19;;;;;;;8.93;8.23;;;;;;;19.06;78.75;95526.09;5031444;28;20201;-86
2023/06/06 01:16:49;;;;;;;9.77;8.88;;;;;;;19.12;78.22;95528.56;5031230;28;20202;-87
2023/06/06 01:19:20;;;;;;;10.13;9.23;;;;;;;19.08;78.53;95543.09;5031486;28;20222;-85
2023/06/06 01:21:51;;;;;;;9.85;8.98;;;;;;;19.08;78.63;95539.69;5031124;28;20236;-85
2023/06/06 01:24:19;;;;;;;9.32;8.52;;;;;;;19.10;78.01;95548.09;5037435;28;20201;-85
2023/06/06 01:26:46;;;;;;;10.55;9.45;;;;;;;18.95;79.31;95543.38;5049745;28;20667;-84
2023/06/06 01:29:12;;;;;;;10.85;9.95;;;;;;;18.78;80.40;95543.28;5035684;28;20222;-84
2023/06/06 01:31:43;;;;;;;9.73;8.93;;;;;;;18.79;80.40;95547.47;5041747;28;20214;-86
2023/06/06 01:34:21;;;;;;;9.75;8.93;;;;;;;18.78;80.62;95545.88;5050019;28;20289;-84
2023/06/06 01:36:57;;;;;;;10.88;9.88;;;;;;;18.77;80.97;95546.91;5049955;28;20209;-84
2023/06/06 01:39:25;;;;;;;9.52;8.73;;;;;;;18.84;81.07;95550.19;5049587;28;20221;-85
2023/06/06 01:41:55;;;;;;;9.80;9.00;;;;;;;18.91;79.84;95548.25;5049940;28;20231;-84
2023/06/06 01:44:23;;;;;;;9.15;8.35;;;;;;;18.93;80.13;95545.41;5049191;28;20636;-85
2023/06/06 01:46:50;;;;;;;10.38;9.35;;;;;;;19.02;79.24;95543.25;5048704;28;20204;-83
2023/06/06 01:49:16;;;;;;;10.30;9.40;;;;;;;18.90;80.05;95546.66;5049412;28;20217;-84
2023/06/06 01:51:43;;;;;;;10.18;9.38;;;;;;;18.89;80.23;95539.84;5036770;28;20206;-87
2023/06/06 01:54:11;;;;;;;11.25;10.10;;;;;;;18.84;80.37;95546.78;5050207;28;20221;-88
2023/06/06 01:56:38;;;;;;;10.68;9.77;;;;;;;18.84;80.85;95546.78;5050305;28;20392;-87
2023/06/06 01:59:05;;;;;;;11.07;9.98;;;;;;;18.88;80.46;95547.91;5036766;28;20222;-87
2023/06/06 02:01:31;;;;;;;11.05;10.13;;;;;;;18.75;81.25;95548.16;5030036;28;20240;-85
2023/06/06 02:03:57;;;;;;;10.35;9.55;;;;;;;18.56;82.07;95558.66;5038542;28;20193;-84
2023/06/06 02:06:24;;;;;;;10.20;9.40;;;;;;;18.60;81.90;95552.00;5032258;28;20585;-84
2023/06/06 02:08:50;;;;;;;10.82;9.93;;;;;;;18.58;81.85;95555.84;5030516;28;20218;-85
2023/06/06 02:11:18;;;;;;;9.13;8.38;;;;;;;18.55;81.59;95556.28;5030380;28;20198;-85
2023/06/06 02:13:44;;;;;;;9.98;9.07;;;;;;;18.58;81.18;95551.41;5030045;28;20218;-86
2023/06/06 02:16:11;;;;;;;9.65;8.85;;;;;;;18.50;81.73;95551.75;5030508;28;20267;-86
2023/06/06 02:18:37;;;;;;;10.52;9.43;;;;;;;18.61;81.23;95552.81;5030523;28;20222;-84
2023/06/06 02:21:04;;;;;;;9.27;8.57;;;;;;;18.75;80.50;95555.97;5041757;28;20197;-85
2023/06/06 02:23:30;;;;;;;10.00;9.20;;;;;;;18.77;80.70;95548.72;5049625;28;20243;-86
2023/06/06 02:25:57;;;;;;;8.60;7.90;;;;;;;18.83;79.52;95555.63;5049179;28;20255;-85
2023/06/06 02:28:24;;;;;;;7.00;6.40;;;;;;;18.86;77.68;95563.00;5042455;28;20595;-86
2023/06/06 02:30:51;;;;;;;5.93;5.38;;;;;;;18.79;77.10;95557.91;5029507;28;20711;-84
2023/06/06 02:33:19;;;;;;;4.60;4.20;;;;;;;18.78;76.18;95560.75;5029891;28;20320;-85
2023/06/06 02:35:46;;;;;;;4.03;3.63;;;;;;;18.69;74.59;95565.50;5029281;28;20772;-84
2023/06/06 02:38:12;;;;;;;3.90;3.60;;;;;;;18.70;74.57;95569.69;5045506;22;20261;-84
2023/06/06 02:40:51;;;;;;;3.30;3.10;;;;;;;18.70;74.04;95559.25;5029105;28;20212;-84
2023/06/06 02:43:20;;;;;;;3.25;2.92;;;;;;;18.70;73.46;95563.69;5028968;28;20280;-84
2023/06/06 02:46:24;;;;;;;3.22;3.03;;;;;;;18.68;72.15;95561.28;5030024;28;20202;-84
2023/06/06 02:48:59;;;;;;;3.05;2.80;;;;;;;18.66;72.26;95560.75;5006715;28;20223;-84
2023/06/06 02:51:28;;;;;;;3.15;2.90;;;;;;;18.59;72.11;95563.47;5009495;28;20198;-84
2023/06/06 02:53:58;;;;;;;3.00;2.80;;;;;;;18.51;72.55;95561.16;5029073;28;20316;-85
2023/06/06 02:56:33;;;;;;;3.15;2.85;;;;;;;18.50;72.25;95564.00;5028853;28;20220;-84
2023/06/06 02:59:08;;;;;;;3.00;2.80;;;;;;;18.50;71.61;95564.00;5015072;28;20309;-86
2023/06/06 03:02:17;;;;;;;3.20;2.90;;;;;;;18.40;72.10;95567.16;4997056;28;20995;-87
2023/06/06 03:05:13;;;;;;;3.85;3.03;;;;;;;18.36;72.02;95570.44;5011157;28;20208;-84
2023/06/06 03:08:05;;;;;;;;;;;;;;;;;;;;;
2023/06/06 03:10:43;;;;;;;4.55;3.17;;;;;;;18.36;71.58;95578.25;4995643;28;20200;-85
2023/06/06 03:13:12;;;;;;;3.58;3.38;;;;;;;18.32;71.48;95572.69;4996217;28;20693;-85
2023/06/06 03:16:01;;;;;;;3.30;3.10;;;;;;;18.31;71.79;95568.50;4995224;28;20203;-84
2023/06/06 03:18:47;;;;;;;3.45;3.15;;;;;;;18.35;71.52;95574.88;5012863;28;20329;-83
2023/06/06 03:21:25;;;;;;;3.35;3.05;;;;;;;18.34;71.70;95578.47;5015131;28;20198;-84
2023/06/06 03:24:25;;;;;;;3.42;3.22;;;;;;;18.34;71.54;95577.69;5015436;28;20199;-84
2023/06/06 03:27:11;;;;;;;3.42;3.20;;;;;;;18.33;71.29;95581.31;4971736;28;20317;-86
2023/06/06 03:30:11;;;;;;;3.30;3.10;;;;;;;18.27;71.68;95575.22;4948042;28;20225;-84
2023/06/06 03:32:38;;;;;;;3.30;3.10;;;;;;;18.30;71.42;95579.94;4996176;28;20271;-84
2023/06/06 03:35:07;;;;;;;3.45;3.20;;;;;;;18.34;71.11;95586.31;5006675;28;20633;-84
2023/06/06 03:37:33;;;;;;;3.35;2.92;;;;;;;18.33;71.16;95581.31;5015591;28;20596;-84
2023/06/06 03:40:03;;;;;;;3.80;3.22;;;;;;;18.39;70.98;95583.03;5024740;28;20256;-84
2023/06/06 03:42:31;;;;;;;3.85;3.45;;;;;;;18.32;71.07;95580.53;5034859;28;20205;-85
2023/06/06 03:44:57;;;;;;;3.25;3.03;;;;;;;18.36;70.75;95586.09;5035354;28;20225;-84
2023/06/06 03:47:24;;;;;;;4.25;3.58;;;;;;;18.27;70.57;95581.22;5014878;28;20198;-84
2023/06/06 03:49:50;;;;;;;3.60;3.30;;;;;;;18.23;70.43;95584.50;5014473;28;20738;-84
2023/06/06 03:52:18;;;;;;;3.72;3.42;;;;;;;18.01;70.79;95589.41;5026233;28;20286;-85
2023/06/06 03:54:44;;;;;;;3.30;3.10;;;;;;;18.06;70.39;95583.53;5023586;28;20202;-83
2023/06/06 03:57:11;;;;;;;3.40;3.13;;;;;;;17.98;69.94;95578.63;5014994;28;20202;-84
2023/06/06 03:59:37;;;;;;;3.47;3.20;;;;;;;17.97;69.08;95587.47;5009368;28;20691;-85
2023/06/06 04:02:06;;;;;;;3.83;3.53;;;;;;;17.98;68.84;95584.66;5015560;28;20206;-86
2023/06/06 04:04:32;;;;;;;3.55;3.25;;;;;;;17.89;69.15;95591.19;5015612;28;20206;-86
2023/06/06 04:06:59;;;;;;;4.03;3.55;;;;;;;17.92;69.02;95591.53;5009495;28;20864;-86
2023/06/06 04:09:27;;;;;;;3.78;3.47;;;;;;;17.88;68.82;95585.19;4994250;28;20215;-85
2023/06/06 04:11:53;;;;;;;3.92;3.47;;;;;;;17.83;69.21;95587.66;4993394;28;20207;-86
2023/06/06 04:14:19;;;;;;;3.80;3.50;;;;;;;17.92;68.50;95590.72;5011198;28;20222;-85
2023/06/06 04:16:46;;;;;;;4.88;3.60;;;;;;;18.04;68.39;95591.59;5012337;28;20202;-86
2023/06/06 04:19:12;;;;;;;5.07;3.40;;;;;;;18.08;67.90;95589.34;5013034;28;20269;-85
2023/06/06 04:21:39;;;;;;;5.90;3.40;;;;;;;18.03;68.21;95592.59;4995809;28;20262;-85
2023/06/06 04:24:05;;;;;;;4.05;3.75;;;;;;;18.02;68.47;95593.63;4993335;28;20200;-85
2023/06/06 04:26:33;;;;;;;3.78;3.47;;;;;;;18.05;68.26;95594.97;4993608;28;20211;-86
2023/06/06 04:29:00;;;;;;;4.00;3.60;;;;;;;18.02;68.41;95593.63;4998441;28;20254;-85
2023/06/06 04:31:29;;;;;;;4.00;3.70;;;;;;;17.99;68.65;95599.25;5013629;28;20210;-86
2023/06/06 04:33:56;;;;;;;4.00;3.70;;;;;;;17.93;68.76;95595.72;5005700;28;20754;-85
2023/06/06 04:36:23;;;;;;;5.70;3.70;;;;;;;17.88;68.52;95598.22;5010140;28;20199;-85
2023/06/06 04:38:51;;;;;;;4.10;3.70;;;;;;;17.89;68.08;95601.63;5011983;28;20269;-86
2023/06/06 04:41:20;;;;;;;4.20;3.80;;;;;;;17.90;68.03;95592.75;5013258;28;20191;-86
2023/06/06 04:43:51;;;;;;;4.10;3.80;;;;;;;17.94;68.27;95606.94;5011784;28;20199;-86
2023/06/06 04:46:21;;;;;;;5.10;3.72;;;;;;;17.93;68.03;95605.34;5010889;28;20225;-85
2023/06/06 04:48:52;;;;;;;4.93;4.43;;;;;;;17.86;67.92;95602.06;5012764;28;20214;-85
2023/06/06 04:51:18;;;;;;;4.70;4.30;;;;;;;17.86;68.12;95604.66;5012390;28;20230;-86
2023/06/06 04:53:45;;;;;;;4.60;4.20;;;;;;;17.68;69.17;95608.09;5010503;28;20646;-84
2023/06/06 04:56:13;;;;;;;5.03;4.63;;;;;;;17.77;68.74;95609.38;5011690;28;20298;-85
2023/06/06 04:58:43;;;;;;;5.20;4.70;;;;;;;17.78;68.65;95616.19;5010519;28;20215;-84
2023/06/06 05:01:13;;;;;;;4.47;4.07;;;;;;;17.93;68.34;95608.75;5014215;28;20202;-85
2023/06/06 05:03:40;;;;;;;4.38;3.97;;;;;;;17.93;68.17;95613.16;5008748;28;20187;-85
2023/06/06 05:06:06;;;;;;;5.10;4.63;;;;;;;17.98;67.54;95612.50;5013634;28;20233;-85
2023/06/06 05:08:35;;;;;;;5.70;4.35;;;;;;;17.92;68.01;95620.19;5013233;28;20219;-85
2023/06/06 05:11:02;;;;;;;5.00;4.20;;;;;;;17.85;68.15;95626.50;5011769;28;20233;-86
2023/06/06 05:13:28;;;;;;;5.28;4.60;;;;;;;17.83;68.66;95618.91;5009327;28;20223;-84
2023/06/06 05:15:55;;;;;;;4.68;4.28;;;;;;;17.84;68.47;95627.53;5010542;28;20345;-84
2023/06/06 05:18:23;;;;;;;5.63;4.30;;;;;;;17.87;68.59;95627.09;5010269;28;20225;-83
2023/06/06 05:20:54;;;;;;;4.85;4.45;;;;;;;17.72;68.89;95627.47;5012660;28;20214;-84
2023/06/06 05:23:21;;;;;;;4.75;4.35;;;;;;;17.70;68.84;95632.13;5008920;28;20187;-85
2023/06/06 05:25:49;;;;;;;5.30;4.70;;;;;;;17.68;68.09;95634.16;5014208;28;20199;-85
2023/06/06 05:28:15;;;;;;;6.18;5.13;;;;;;;17.70;68.48;95634.72;5012985;28;21481;-84
2023/06/06 05:30:42;;;;;;;7.88;6.50;;;;;;;17.57;68.71;95640.84;5014035;28;20205;-83
2023/06/06 05:33:10;;;;;;;7.53;6.82;;;;;;;17.65;68.64;95634.59;5014525;28;20564;-85
2023/06/06 05:35:40;;;;;;;22.05;19.92;;;;;;;17.62;68.69;95640.19;5014601;28;20203;-84
2023/06/06 05:38:09;;;;;;;8.43;7.72;;;;;;;17.71;67.94;95641.50;5015379;28;20231;-86
2023/06/06 05:40:36;;;;;;;8.15;6.68;;;;;;;17.66;68.26;95643.97;4996846;28;20195;-84
2023/06/06 05:43:02;;;;;;;7.03;6.05;;;;;;;17.73;67.74;95649.88;4994809;28;20204;-86
2023/06/06 05:45:29;;;;;;;6.93;6.40;;;;;;;17.71;67.89;95649.31;4994417;28;20233;-85
2023/06/06 05:47:56;;;;;;;7.25;6.57;;;;;;;17.67;68.47;95650.00;4995034;28;20251;-85
2023/06/06 05:50:25;;;;;;;7.68;6.60;;;;;;;17.74;67.92;95641.06;5000567;28;20195;-84
2023/06/06 05:52:56;;;;;;;7.10;6.50;;;;;;;17.79;67.87;95640.41;5029099;28;20873;-85
2023/06/06 05:55:44;;;;;;;;;;;;;;;;;;;;;
2023/06/06 05:58:10;;;;;;;8.18;7.40;;;;;;;17.81;67.56;95638.38;5034033;23;20248;-84
2023/06/06 06:00:44;;;;;;;8.30;7.50;;;;;;;17.81;67.43;95641.00;5033352;28;20229;-84
2023/06/06 06:03:14;;;;;;;9.98;9.00;;;;;;;17.84;67.11;95638.75;5033963;28;20217;-86
2023/06/06 06:05:40;;;;;;;8.05;7.28;;;;;;;17.84;66.91;95638.75;5049952;28;20304;-84
2023/06/06 06:08:08;;;;;;;7.18;6.47;;;;;;;17.78;66.76;95642.22;5038414;28;20226;-84
2023/06/06 06:10:37;;;;;;;9.10;7.60;;;;;;;17.88;66.17;95642.50;5032138;28;20198;-83
2023/06/06 06:13:06;;;;;;;7.63;7.03;;;;;;;17.71;66.49;95638.88;5030308;28;20198;-84
2023/06/06 06:15:34;;;;;;;7.90;7.20;;;;;;;17.73;67.20;95638.66;5030701;28;20194;-84
2023/06/06 06:18:07;;;;;;;14.25;12.93;;;;;;;17.82;66.77;95637.38;5031626;28;20222;-85
2023/06/06 06:20:34;;;;;;;10.07;8.98;;;;;;;17.88;66.61;95634.69;5032545;28;20229;-86
2023/06/06 06:23:01;;;;;;;7.30;6.70;;;;;;;17.92;65.91;95641.03;5031748;28;20202;-86
2023/06/06 06:25:28;;;;;;;6.60;6.03;;;;;;;17.99;65.78;95638.34;5031825;28;20206;-83
2023/06/06 06:28:03;;;;;;;7.20;6.50;;;;;;;18.01;65.74;95641.53;5031876;28;20217;-85
2023/06/06 06:30:30;;;;;;;6.88;6.28;;;;;;;17.98;65.80;95644.56;5030835;28;20210;-84
2023/06/06 06:32:56;;;;;;;6.93;6.40;;;;;;;17.97;65.58;95648.19;5030902;28;20213;-84
2023/06/06 06:35:46;;;;;;;7.18;6.60;;;;;;;18.03;66.07;95649.13;5030631;28;20233;-85
2023/06/06 06:38:13;;;;;;;7.13;6.53;;;;;;;18.06;66.30;95652.09;5043072;23;20229;-86
2023/06/06 06:40:42;;;;;;;13.98;12.57;;;;;;;18.10;66.39;95647.19;5012715;28;20199;-85
2023/06/06 06:43:08;;;;;;;8.00;7.30;;;;;;;18.11;66.42;95649.59;5011375;28;20206;-86
2023/06/06 06:45:34;;;;;;;6.03;5.53;;;;;;;18.09;66.05;95650.84;5011434;28;20683;-84
2023/06/06 06:48:02;;;;;;;5.47;4.97;;;;;;;18.17;66.11;95655.75;5020497;28;20222;-86
2023/06/06 06:50:28;;;;;;;6.35;5.28;;;;;;;18.22;65.73;95666.31;5011061;28;20202;-86
2023/06/06 06:53:02;;;;;;;5.30;4.90;;;;;;;18.19;65.69;95664.94;4995676;28;20806;-86
2023/06/06 06:55:34;;;;;;;5.60;5.10;;;;;;;18.10;66.61;95662.84;5017084;28;20760;-86
2023/06/06 06:58:22;;;;;;;5.97;5.00;;;;;;;18.14;65.65;95659.56;5026820;28;20769;-86
2023/06/06 07:01:16;;;;;;;5.75;5.25;;;;;;;18.11;66.23;95673.03;5027420;28;20207;-86
2023/06/06 07:03:51;;;;;;;5.75;5.35;;;;;;;18.08;66.94;95670.91;5006327;28;20959;-86
2023/06/06 07:06:24;;;;;;;5.68;5.18;;;;;;;18.19;65.87;95667.53;5007352;28;20217;-85
2023/06/06 07:08:58;;;;;;;6.18;5.57;;;;;;;18.23;65.72;95668.69;4998986;28;20587;-86
2023/06/06 07:11:48;;;;;;;7.05;5.70;;;;;;;18.21;65.49;95668.13;4988601;28;20207;-86
2023/06/06 07:14:45;;;;;;;6.63;6.07;;;;;;;18.26;65.39;95670.84;4977053;28;20223;-86
2023/06/06 07:17:15;;;;;;;5.72;5.22;;;;;;;18.28;65.23;95673.22;5001008;28;20191;-85
2023/06/06 07:22:56;;;;;;;7.45;6.85;;;;;;;18.32;65.40;95676.19;5006881;28;20206;-88
2023/06/06 07:28:10;;;;;;;5.50;4.50;;;;;;;18.36;65.03;95670.31;4997231;28;20254;-87
2023/06/06 07:30:47;;;;;;;6.63;4.90;;;;;;;18.27;65.70;95663.81;5008091;28;20210;-88
2023/06/06 07:33:30;;;;;;;5.43;4.93;;;;;;;18.40;65.16;95668.06;5008057;28;20209;-88
2023/06/06 07:35:56;;;;;;;5.00;4.50;;;;;;;18.43;64.50;95667.59;5008353;28;20550;-88
2023/06/06 07:38:54;;;;;;;;;;;;;;;;;;;;;
2023/06/06 07:41:21;;;;;;;5.88;5.28;;;;;;;18.39;65.11;95669.06;5047716;28;20201;-89
2023/06/06 07:47:18;;;;;;;5.60;5.07;;;;;;;18.34;65.69;95661.09;4995742;28;20334;-87
2023/06/06 07:50:02;;;;;;;5.85;4.80;;;;;;;18.26;65.51;95667.44;5031996;28;20210;-88
2023/06/06 07:52:43;;;;;;;7.63;5.43;;;;;;;18.39;65.38;95666.47;5043301;28;20221;-88
2023/06/06 07:55:18;;;;;;;5.28;4.85;;;;;;;18.44;64.91;95658.78;5051332;28;20717;-85
2023/06/06 07:58:07;;;;;;;;;;;;;;;;;;;;;
2023/06/06 08:00:37;;;;;;;4.82;4.43;;;;;;;18.57;64.90;95656.75;5031462;28;20210;-88
2023/06/06 08:06:18;;;;;;;4.65;4.28;;;;;;;18.64;64.21;95667.13;5027055;28;20404;-90
2023/06/06 08:08:57;;;;;;;3.97;3.67;;;;;;;18.53;63.89;95663.41;5030899;28;20222;-89
2023/06/06 08:11:29;;;;;;;4.50;4.10;;;;;;;18.45;63.66;95661.16;5030631;28;20261;-89
2023/06/06 08:14:20;;;;;;;5.68;3.83;;;;;;;18.48;63.87;95663.28;5030429;28;20226;-89
2023/06/06 08:17:07;;;;;;;4.10;3.80;;;;;;;18.45;64.25;95662.97;5030684;28;20205;-89
2023/06/06 08:19:42;;;;;;;4.32;3.92;;;;;;;18.50;63.76;95660.47;5030839;28;20220;-89
2023/06/06 08:22:33;;;;;;;4.07;3.70;;;;;;;18.56;63.60;95659.56;5031355;28;20198;-89
2023/06/06 08:25:12;;;;;;;8.60;7.78;;;;;;;18.52;64.18;95664.44;5031109;28;20713;-90
2023/06/06 08:31:00;;;;;;;3.40;3.10;;;;;;;18.57;63.17;95664.56;5008485;28;20663;-89
2023/06/06 08:36:40;;;;;;;3.92;3.35;;;;;;;18.67;62.94;95666.66;5014172;28;20679;-89
2023/06/06 08:39:09;;;;;;;5.63;3.53;;;;;;;18.70;62.80;95665.41;5030048;28;20313;-89
2023/06/06 08:41:56;;;;;;;4.18;3.20;;;;;;;18.55;63.50;95669.22;5030748;28;20555;-89
2023/06/06 08:44:24;;;;;;;3.38;3.13;;;;;;;18.55;63.25;95658.00;5028500;28;20206;-88
2023/06/06 08:46:52;;;;;;;4.70;3.60;;;;;;;18.62;63.89;95671.75;5029800;28;20237;-89
2023/06/06 08:49:47;;;;;;;4.30;4.00;;;;;;;18.62;64.12;95664.72;5030135;28;20849;-89
2023/06/06 08:52:17;;;;;;;4.30;3.40;;;;;;;18.69;63.71;95663.81;5031653;28;20289;-88
2023/06/06 08:55:01;;;;;;;3.95;3.28;;;;;;;18.63;64.70;95670.75;5038938;28;20226;-88
2023/06/06 08:57:28;;;;;;;3.25;2.92;;;;;;;18.68;64.35;95664.84;4968321;28;20204;-89
2023/06/06 09:02:54;;;;;;;4.13;2.58;;;;;;;18.83;63.86;95668.63;4991544;28;20899;-88
2023/06/06 09:05:31;;;;;;;3.10;2.90;;;;;;;18.87;62.91;95668.94;5029833;28;20890;-89
2023/06/06 09:08:14;;;;;;;2.90;2.70;;;;;;;18.96;62.09;95659.75;5030126;28;20225;-88
2023/06/06 09:10:56;;;;;;;2.80;2.60;;;;;;;19.13;61.41;95659.88;5029897;28;20544;-88
2023/06/06 09:13:27;;;;;;;2.47;2.28;;;;;;;19.58;60.08;95666.09;5030041;28;20206;-88
2023/06/06 09:16:00;;;;;;;2.70;2.50;;;;;;;19.82;58.79;95671.28;5029268;28;20241;-88
2023/06/06 09:18:44;;;;;;;2.55;2.38;;;;;;;19.87;58.49;95672.16;5029936;28;20590;-89
2023/06/06 09:21:48;;;;;;;2.83;2.63;;;;;;;20.39;57.66;95661.63;5029903;28;20740;-89
2023/06/06 09:24:25;;;;;;;2.15;1.95;;;;;;;20.95;54.74;95663.31;5029811;28;20210;-88
2023/06/06 09:26:52;;;;;;;3.75;2.40;;;;;;;21.02;54.19;95653.47;5029186;28;20288;-88
2023/06/06 09:29:27;;;;;;;3.75;2.50;;;;;;;21.09;54.08;95655.91;5029448;28;20218;-90
2023/06/06 09:32:04;;;;;;;;;;;;;;;;;;;;;
2023/06/06 09:34:40;;;;;;;2.58;2.10;;;;;;;20.69;55.97;95646.44;5029656;28;20214;-87
2023/06/06 09:37:09;;;;;;;2.45;2.25;;;;;;;20.75;55.53;95642.06;5029578;28;20212;-86
2023/06/06 09:45:58;;;;;;;2.00;1.90;;;;;;;22.04;51.43;95644.31;5024866;28;20293;-86
2023/06/06 09:49:03;;;;;;;2.17;2.08;;;;;;;22.23;51.30;95635.06;5029508;28;20226;-86
2023/06/06 09:51:44;;;;;;;18.08;16.33;;;;;;;21.92;51.95;95641.81;4971968;28;20208;-87
2023/06/06 09:54:16;;;;;;;3.92;3.63;;;;;;;21.79;52.45;95644.78;4986240;28;20338;-86
2023/06/06 09:57:04;;;;;;;2.50;2.30;;;;;;;22.05;50.61;95643.28;5028729;28;20312;-87
2023/06/06 09:59:32;;;;;;;1.98;1.88;;;;;;;22.45;51.36;95642.06;5028742;28;20680;-86
2023/06/06 10:02:06;;;;;;;2.10;2.00;;;;;;;22.61;49.48;95634.06;5028976;28;20210;-87
2023/06/06 10:07:41;;;;;;;2.17;2.00;;;;;;;22.73;48.83;95634.69;4996509;28;20309;-87
2023/06/06 10:13:26;;;;;;;2.40;2.20;;;;;;;22.73;48.73;95631.25;5025703;28;20209;-86
2023/06/06 10:16:25;;;;;;;2.25;2.05;;;;;;;22.97;49.52;95640.41;5027568;28;20239;-89
2023/06/06 10:21:51;;;;;;;3.75;2.80;;;;;;;23.12;49.39;95642.31;4974796;28;20203;-88
2023/06/06 10:24:41;;;;;;;6.00;5.30;;;;;;;23.71;47.89;95642.13;5009300;28;20202;-89
2023/06/06 10:27:29;;;;;;;2.22;2.03;;;;;;;23.41;46.06;95638.28;4999869;28;20207;-86
2023/06/06 10:30:30;;;;;;;2.20;2.00;;;;;;;22.92;47.11;95629.06;5019140;28;20208;-91
2023/06/06 10:33:42;;;;;;;2.53;2.30;;;;;;;22.76;49.59;95636.00;5028002;28;20202;-89
2023/06/06 10:37:01;;;;;;;;;;;;;;;;;;;;;
2023/06/06 10:39:42;;;;;;;5.15;2.53;;;;;;;23.16;47.09;95645.25;5028792;28;20747;-87
2023/06/06 10:42:11;;;;;;;3.30;2.13;;;;;;;23.56;45.17;95634.97;5028295;28;20233;-89
2023/06/06 10:44:54;;;;;;;2.38;2.17;;;;;;;23.67;44.22;95631.31;5027973;28;20225;-87
2023/06/06 10:47:32;;;;;;;7.07;6.35;;;;;;;23.56;45.09;95634.19;5028486;28;20202;-87
2023/06/06 10:50:21;;;;;;;12.35;11.20;;;;;;;23.37;45.37;95631.97;5021186;28;20197;-87
2023/06/06 10:52:50;;;;;;;3.30;3.00;;;;;;;23.49;45.34;95630.94;5043029;28;20569;-87
2023/06/06 10:55:17;;;;;;;3.00;2.70;;;;;;;23.67;45.32;95625.28;5024816;28;20240;-87
2023/06/06 10:57:55;;;;;;;3.88;2.90;;;;;;;23.89;45.07;95625.09;5028221;28;20289;-87
2023/06/06 11:00:25;;;;;;;2.95;2.53;;;;;;;24.25;45.10;95618.88;5027777;28;20206;-87
2023/06/06 11:02:55;;;;;;;2.60;2.40;;;;;;;24.51;44.37;95622.31;5027821;28;20292;-88
2023/06/06 11:05:22;;;;;;;4.47;2.63;;;;;;;24.47;43.03;95621.25;5016156;28;20199;-87
2023/06/06 11:07:50;;;;;;;3.83;2.60;;;;;;;24.63;42.62;95608.91;5020651;28;20194;-87
2023/06/06 11:10:21;;;;;;;3.00;2.70;;;;;;;24.67;42.84;95607.31;5028352;28;20206;-87
2023/06/06 11:12:49;;;;;;;2.97;2.72;;;;;;;24.76;43.04;95611.78;5027932;28;20237;-88
2023/06/06 11:15:27;;;;;;;3.25;2.90;;;;;;;24.87;42.29;95602.03;5027912;28;20233;-87
2023/06/06 11:18:00;;;;;;;2.88;2.67;;;;;;;24.99;41.72;95607.84;5028705;28;20633;-87
2023/06/06 11:20:48;;;;;;;5.82;5.32;;;;;;;24.96;42.01;95605.75;5032135;28;20194;-87
2023/06/06 11:23:20;;;;;;;3.92;3.63;;;;;;;24.97;42.51;95611.81;5032482;28;20208;-87
2023/06/06 11:25:46;;;;;;;3.60;3.30;;;;;;;24.91;42.08;95615.47;5031634;28;20194;-88
2023/06/06 11:28:14;;;;;;;2.67;2.47;;;;;;;25.21;42.14;95610.16;5032493;28;20611;-87
2023/06/06 11:30:59;;;;;;;3.03;2.70;;;;;;;24.99;41.22;95610.47;5031492;28;20212;-87
2023/06/06 11:33:26;;;;;;;2.88;2.67;;;;;;;24.47;42.40;95612.56;5028481;28;20981;-87
2023/06/06 11:35:54;;;;;;;3.53;2.88;;;;;;;24.16;43.32;95614.38;5031383;28;20221;-88
2023/06/06 11:38:28;;;;;;;3.45;3.15;;;;;;;24.45;42.81;95612.84;5031051;28;20230;-86
2023/06/06 11:40:55;;;;;;;2.88;2.58;;;;;;;24.43;43.27;95609.69;5031524;28;20206;-87
2023/06/06 11:43:21;;;;;;;3.10;2.75;;;;;;;24.30;43.42;95600.47;5030810;28;20209;-86
2023/06/06 11:46:02;;;;;;;3.03;2.83;;;;;;;24.65;42.37;95597.03;5031447;28;20200;-87
2023/06/06 11:48:35;;;;;;;3.78;3.00;;;;;;;24.61;41.93;95596.00;5031419;28;20226;-87
2023/06/06 11:51:11;;;;;;;3.00;2.70;;;;;;;24.66;42.09;95595.19;5031460;28;20213;-87
2023/06/06 11:53:39;;;;;;;4.20;2.92;;;;;;;24.43;43.00;95588.66;5040302;28;20319;-87
2023/06/06 11:56:14;;;;;;;4.82;3.00;;;;;;;24.04;43.08;95588.31;5050447;28;20223;-87
2023/06/06 11:58:41;;;;;;;3.00;2.60;;;;;;;23.77;44.23;95597.19;5051084;28;20229;-87
2023/06/06 12:01:09;;;;;;;3.95;2.78;;;;;;;24.16;43.05;95588.06;5048841;28;20247;-87
2023/06/06 12:03:35;;;;;;;2.92;2.60;;;;;;;24.54;41.43;95586.78;5031213;28;20201;-86
2023/06/06 12:06:30;;;;;;;;;;;;;;;;;;;;;
2023/06/06 12:12:28;;;;;;;2.88;2.60;;;;;;;25.15;39.31;95586.72;4974997;28;20713;-89
2023/06/06 12:15:15;;;;;;;3.00;2.70;;;;;;;25.25;38.67;95578.78;4970531;28;20207;-89
2023/06/06 12:22:53;;;;;;;2.75;2.55;;;;;;;25.44;37.17;95579.75;4217881;22;20230;-88
2023/06/06 12:25:59;;;;;;;;;;;;;;;;;;;;;
2023/06/06 12:32:36;;;;;;;5.07;2.80;;;;;;;25.83;36.67;95561.41;4855639;29;20303;-89
2023/06/06 12:35:26;;;;;;;3.28;2.97;;;;;;;25.70;37.22;95562.00;4922420;28;20203;-89
2023/06/06 12:38:11;;;;;;;5.00;3.10;;;;;;;25.38;38.87;95572.94;4991838;28;20242;-89
2023/06/06 12:40:40;;;;;;;4.15;3.10;;;;;;;24.94;39.13;95570.16;5019673;28;20304;-89
2023/06/06 12:43:20;;;;;;;;;;;;;;;;;;;;;
2023/06/06 12:50:07;;;;;;;3.10;2.80;;;;;;;25.01;40.50;95563.59;4998546;28;20225;-89
2023/06/06 12:53:06;;;;;;;2.88;2.67;;;;;;;25.43;37.90;95563.16;5018452;28;20592;-90
2023/06/06 13:04:09;;;;;;;3.20;2.90;;;;;;;24.36;39.75;95565.22;5442481;23;20244;-89
2023/06/06 13:07:18;;;;;;;3.22;2.63;;;;;;;24.56;39.35;95579.41;5043545;28;20280;-89
2023/06/06 13:10:13;;;;;;;3.28;2.97;;;;;;;25.06;38.98;95568.03;5142147;23;20321;-90
2023/06/06 13:19:39;;;;;;;5.22;2.80;;;;;;;25.59;39.11;95568.38;5015896;28;20233;-90
2023/06/06 13:22:11;;;;;;;3.95;2.80;;;;;;;25.81;38.65;95566.16;5015491;28;20249;-90
2023/06/06 13:31:54;;;;;;;2.80;2.60;;;;;;;25.96;36.13;95562.66;4872991;29;20214;-90
2023/06/06 13:44:22;;;;;;;5.70;2.90;;;;;;;26.62;37.51;95568.25;4822001;29;20212;-89
2023/06/06 13:46:52;;;;;;;3.20;2.90;;;;;;;26.63;37.22;95567.16;4919034;29;20212;-89
2023/06/06 14:00:20;;;;;;;2.90;2.65;;;;;;;26.38;37.27;95554.97;4889264;23;20226;-89